Eatons Neck, New York
Current Conditions -  °F | °C
As of 3:42 PM on Monday 26 Jan 2015 (Local Time) from KFRG Reporting Station
Light Snow Light Snow  
Wind Chill: 14°   Ceiling: 1800
Heat Index: 27°   Visibility: 0.75mi
Dew Point: 24°   Wind: 18mph
Humidity: 89%   Direction: 40°NE
Pressure: 29.84"   Gusts: 26mph
Location:  40.9096°N, 73.3231°W
Report Text: KFRG 262042Z 04016G23KT 3/4SM -SN BR FEW013 OVC018 M03/M04 A2984 RMK AO2 P0001 T10281044
Loading
Personal Weather Stations






























Interactive Weather Map New forecast layout! Learn more

10-Day Weather Forecast

Advertisements
Track Severe Weather on mobile